Time;durP1;ratioP1;P1;durP2;ratioP2;P2;SDS_P1;SDS_P2;PMS_P1;PMS_P2;Temp;Humidity;BMP_temperature;BMP_pressure;BME280_temperature;BME280_humidity;BME280_pressure;Samples;Min_cycle;Max_cycle;Signal;HPM_P1;HPM_P2
2022/07/12 00:00:34;;;;;;;2.45;2.25;;;;;;;;;;6169921;28;20324;-70
2022/07/12 00:03:54;;;;;;;1.88;1.77;;;;;;;;;;6169499;28;20640;-71
2022/07/12 00:07:15;;;;;;;3.35;2.00;;;;;;;;;;6167195;28;20238;-71
2022/07/12 00:10:37;;;;;;;2.22;2.03;;;;;;;;;;6172734;28;20321;-71
2022/07/12 00:13:57;;;;;;;2.45;2.00;;;;;;;;;;6172200;28;20531;-70
2022/07/12 00:17:18;;;;;;;2.50;2.03;;;;;;;;;;6166278;28;20234;-71
2022/07/12 00:20:39;;;;;;;2.38;2.17;;;;;;;;;;6170898;28;20275;-70
2022/07/12 00:23:59;;;;;;;2.85;2.25;;;;;;;;;;6171622;28;20238;-71
2022/07/12 00:27:21;;;;;;;2.28;2.08;;;;;;;;;;6167427;28;20317;-70
2022/07/12 00:30:42;;;;;;;2.50;2.30;;;;;;;;;;6161961;28;20230;-70
2022/07/12 00:34:02;;;;;;;2.03;1.83;;;;;;;;;;6171568;28;20245;-70
2022/07/12 00:37:23;;;;;;;2.33;2.20;;;;;;;;;;6163877;28;20513;-71
2022/07/12 00:40:44;;;;;;;2.92;2.42;;;;;;;;;;6170521;28;20229;-70
2022/07/12 00:44:06;;;;;;;2.95;2.38;;;;;;;;;;6167870;28;20242;-70
2022/07/12 00:47:32;;;;;;;1.73;1.63;;;;;;;;;;6167375;28;20608;-70
2022/07/12 00:50:53;;;;;;;2.08;1.98;;;;;;;;;;6170822;28;20226;-70
2022/07/12 00:54:15;;;;;;;2.17;1.97;;;;;;;;;;6171119;28;20258;-70
2022/07/12 00:57:36;;;;;;;1.88;1.77;;;;;;;;;;6169184;28;20221;-70
2022/07/12 01:00:59;;;;;;;2.00;1.80;;;;;;;;;;6169355;28;20230;-70
2022/07/12 01:04:19;;;;;;;2.15;1.98;;;;;;;;;;6169187;28;20317;-70
2022/07/12 01:07:41;;;;;;;2.30;2.20;;;;;;;;;;6171172;28;20227;-70
2022/07/12 01:11:02;;;;;;;2.20;2.05;;;;;;;;;;6170028;28;20254;-71
2022/07/12 01:14:23;;;;;;;2.22;2.05;;;;;;;;;;6169524;28;20239;-70
2022/07/12 01:17:46;;;;;;;2.45;2.13;;;;;;;;;;6169815;28;20225;-70
2022/07/12 01:21:08;;;;;;;2.10;2.00;;;;;;;;;;6171255;28;20242;-70
2022/07/12 01:24:30;;;;;;;2.40;2.20;;;;;;;;;;6167930;28;20326;-70
2022/07/12 01:27:51;;;;;;;2.20;1.98;;;;;;;;;;6171337;28;20226;-69
2022/07/12 01:31:12;;;;;;;2.42;2.22;;;;;;;;;;6166749;28;20265;-71
2022/07/12 01:34:32;;;;;;;2.08;1.98;;;;;;;;;;6172692;28;20600;-70
2022/07/12 01:37:53;;;;;;;2.17;2.07;;;;;;;;;;6168633;28;20293;-69
2022/07/12 01:41:15;;;;;;;3.07;2.80;;;;;;;;;;6168059;28;20230;-71
2022/07/12 01:44:36;;;;;;;2.33;2.20;;;;;;;;;;6157943;28;20238;-70
2022/07/12 01:47:58;;;;;;;2.38;2.17;;;;;;;;;;6154657;28;21518;-69
2022/07/12 01:51:19;;;;;;;2.10;2.00;;;;;;;;;;6171017;28;20233;-70
2022/07/12 01:54:40;;;;;;;2.75;2.55;;;;;;;;;;6168579;28;20538;-70
2022/07/12 01:58:02;;;;;;;2.22;2.08;;;;;;;;;;6140940;28;20487;-70
2022/07/12 02:01:23;;;;;;;2.37;2.20;;;;;;;;;;6143083;28;20247;-69
2022/07/12 02:04:43;;;;;;;2.53;2.33;;;;;;;;;;6157207;28;20230;-70
2022/07/12 02:08:04;;;;;;;2.57;2.30;;;;;;;;;;6132234;28;20234;-71
2022/07/12 02:11:24;;;;;;;2.28;2.08;;;;;;;;;;6132454;28;20320;-70
2022/07/12 02:14:46;;;;;;;2.67;2.20;;;;;;;;;;6168097;28;20230;-71
2022/07/12 02:18:07;;;;;;;2.08;1.90;;;;;;;;;;6129833;28;20245;-71
2022/07/12 02:21:28;;;;;;;4.20;2.28;;;;;;;;;;6162125;28;20257;-71
2022/07/12 02:24:49;;;;;;;4.20;2.20;;;;;;;;;;6168467;28;20229;-70
2022/07/12 02:28:10;;;;;;;3.50;2.88;;;;;;;;;;6163850;28;20790;-70
2022/07/12 02:31:32;;;;;;;2.47;2.28;;;;;;;;;;6160443;28;20230;-70
2022/07/12 02:34:52;;;;;;;2.27;2.07;;;;;;;;;;6168344;28;20606;-70
2022/07/12 02:38:13;;;;;;;2.78;2.58;;;;;;;;;;6139761;28;20230;-70
2022/07/12 02:41:34;;;;;;;2.50;2.30;;;;;;;;;;6159376;28;20249;-70
2022/07/12 02:44:56;;;;;;;2.53;2.33;;;;;;;;;;6168771;28;20233;-71
2022/07/12 02:48:18;;;;;;;2.70;2.50;;;;;;;;;;6127759;28;20250;-70
2022/07/12 02:51:39;;;;;;;3.50;2.93;;;;;;;;;;6168846;28;20623;-69
2022/07/12 02:54:59;;;;;;;2.83;2.63;;;;;;;;;;6167986;28;20286;-69
2022/07/12 02:58:20;;;;;;;2.87;2.47;;;;;;;;;;6144970;28;20234;-69
2022/07/12 03:01:40;;;;;;;2.83;2.63;;;;;;;;;;6170488;28;20309;-69
2022/07/12 03:05:03;;;;;;;2.88;2.67;;;;;;;;;;6170195;28;20233;-69
2022/07/12 03:08:24;;;;;;;4.15;3.58;;;;;;;;;;6171157;28;20911;-69
2022/07/12 03:11:44;;;;;;;3.70;3.40;;;;;;;;;;6168367;28;20234;-70
2022/07/12 03:15:06;;;;;;;6.50;3.67;;;;;;;;;;6174777;28;20226;-68
2022/07/12 03:18:27;;;;;;;3.07;2.87;;;;;;;;;;6173510;28;20616;-69
2022/07/12 03:21:48;;;;;;;2.63;2.53;;;;;;;;;;6170599;28;20242;-70
2022/07/12 03:25:09;;;;;;;3.13;2.93;;;;;;;;;;6177642;28;20230;-70
2022/07/12 03:28:29;;;;;;;3.85;3.45;;;;;;;;;;6172135;28;20222;-69
2022/07/12 03:31:50;;;;;;;7.53;5.63;;;;;;;;;;6169686;28;20241;-70
2022/07/12 03:35:11;;;;;;;4.63;3.17;;;;;;;;;;6164493;28;20218;-69
2022/07/12 03:38:33;;;;;;;3.53;3.20;;;;;;;;;;6170420;28;20235;-70
2022/07/12 03:41:53;;;;;;;3.27;2.93;;;;;;;;;;6176372;28;20226;-70
2022/07/12 03:45:14;;;;;;;3.83;3.10;;;;;;;;;;6166212;28;20238;-69
2022/07/12 03:48:35;;;;;;;4.03;3.70;;;;;;;;;;6168117;28;20253;-70
2022/07/12 03:51:55;;;;;;;4.40;4.10;;;;;;;;;;6169257;28;20233;-70
2022/07/12 03:55:17;;;;;;;3.67;3.33;;;;;;;;;;6167194;28;20464;-70
2022/07/12 03:58:38;;;;;;;3.57;3.13;;;;;;;;;;6165271;28;20229;-71
2022/07/12 04:01:59;;;;;;;4.07;3.67;;;;;;;;;;6164334;28;20647;-68
2022/07/12 04:05:19;;;;;;;5.67;4.67;;;;;;;;;;6168004;28;20242;-70
2022/07/12 04:08:40;;;;;;;4.47;3.77;;;;;;;;;;6168421;28;20234;-70
2022/07/12 04:12:02;;;;;;;4.93;4.53;;;;;;;;;;6166123;28;20238;-70
2022/07/12 04:15:23;;;;;;;5.13;4.70;;;;;;;;;;6167013;28;20242;-70
2022/07/12 04:18:44;;;;;;;4.43;4.03;;;;;;;;;;6167077;28;20496;-70
2022/07/12 04:22:04;;;;;;;4.63;3.93;;;;;;;;;;6173165;28;20226;-69
2022/07/12 04:25:25;;;;;;;4.07;3.78;;;;;;;;;;6166917;28;20278;-70
2022/07/12 04:28:48;;;;;;;6.15;5.65;;;;;;;;;;6168642;28;20261;-70
2022/07/12 04:32:08;;;;;;;5.80;5.30;;;;;;;;;;6170116;28;20250;-70
2022/07/12 04:35:29;;;;;;;4.80;4.43;;;;;;;;;;6171572;28;20221;-70
2022/07/12 04:38:50;;;;;;;7.33;4.77;;;;;;;;;;6141113;28;20234;-70
2022/07/12 04:42:10;;;;;;;6.93;5.97;;;;;;;;;;6168187;28;20230;-69
2022/07/12 04:45:32;;;;;;;6.73;6.13;;;;;;;;;;6170458;28;20265;-70
2022/07/12 04:48:53;;;;;;;6.72;5.28;;;;;;;;;;6165064;28;22387;-70
2022/07/12 04:52:14;;;;;;;6.20;5.60;;;;;;;;;;6169063;28;20222;-69
2022/07/12 04:55:34;;;;;;;5.95;5.32;;;;;;;;;;6170790;28;20230;-70
2022/07/12 04:58:55;;;;;;;6.97;6.45;;;;;;;;;;6168244;28;20229;-71
2022/07/12 05:02:16;;;;;;;5.70;5.30;;;;;;;;;;6162862;28;20258;-69
2022/07/12 05:05:37;;;;;;;6.32;5.82;;;;;;;;;;6164633;28;20234;-70
2022/07/12 05:08:58;;;;;;;6.63;6.03;;;;;;;;;;6164106;28;21667;-70
2022/07/12 05:12:19;;;;;;;5.40;4.95;;;;;;;;;;6166821;28;21265;-70
2022/07/12 05:15:40;;;;;;;3.83;3.53;;;;;;;;;;6170563;28;20225;-70
2022/07/12 05:19:02;;;;;;;4.57;3.30;;;;;;;;;;6159709;28;20233;-70
2022/07/12 05:22:22;;;;;;;3.88;3.58;;;;;;;;;;6160589;28;20682;-71
2022/07/12 05:25:43;;;;;;;3.63;3.33;;;;;;;;;;6162259;28;20321;-70
2022/07/12 05:29:03;;;;;;;3.40;3.15;;;;;;;;;;6162829;28;20234;-70
2022/07/12 05:32:24;;;;;;;3.13;2.92;;;;;;;;;;6165987;28;20232;-71
2022/07/12 05:35:46;;;;;;;3.53;3.22;;;;;;;;;;6165242;28;20234;-71
2022/07/12 05:39:07;;;;;;;2.78;2.58;;;;;;;;;;6162805;28;20238;-70
2022/07/12 05:42:28;;;;;;;2.58;2.38;;;;;;;;;;6161913;28;20234;-69
2022/07/12 05:45:48;;;;;;;3.58;2.90;;;;;;;;;;6158858;28;20237;-72
2022/07/12 05:49:08;;;;;;;2.95;2.72;;;;;;;;;;6147983;28;20241;-68
2022/07/12 05:56:12;;;;;;;5.07;2.92;;;;;;;;;;6148004;28;20234;-69
2022/07/12 05:59:35;;;;;;;2.60;2.40;;;;;;;;;;6145994;28;20233;-68
2022/07/12 06:02:55;;;;;;;3.35;2.45;;;;;;;;;;6457109;22;20211;-71
2022/07/12 06:06:16;;;;;;;4.68;2.97;;;;;;;;;;6218164;28;20226;-68
2022/07/12 06:09:38;;;;;;;4.32;2.70;;;;;;;;;;6214115;28;20233;-69
2022/07/12 06:12:58;;;;;;;2.67;2.47;;;;;;;;;;6207275;28;20232;-68
2022/07/12 06:16:19;;;;;;;2.50;2.30;;;;;;;;;;6213106;28;20236;-71
2022/07/12 06:19:39;;;;;;;2.15;1.88;;;;;;;;;;6213375;28;20594;-71
2022/07/12 06:23:00;;;;;;;2.53;2.33;;;;;;;;;;6222727;28;20236;-70
2022/07/12 06:26:23;;;;;;;2.72;2.28;;;;;;;;;;6217889;28;20737;-71
2022/07/12 06:29:47;;;;;;;2.42;2.20;;;;;;;;;;6231246;28;20228;-69
2022/07/12 06:33:08;;;;;;;2.85;2.42;;;;;;;;;;6222038;28;20743;-71
2022/07/12 06:36:28;;;;;;;2.78;1.67;;;;;;;;;;6217812;28;20235;-71
2022/07/12 06:39:49;;;;;;;2.40;2.20;;;;;;;;;;6219684;28;20224;-68
2022/07/12 06:43:11;;;;;;;3.40;2.63;;;;;;;;;;6204070;28;20240;-70
2022/07/12 06:46:32;;;;;;;2.70;2.38;;;;;;;;;;6221347;28;20228;-70
2022/07/12 06:49:53;;;;;;;3.45;2.72;;;;;;;;;;6219632;28;20224;-69
2022/07/12 06:53:14;;;;;;;4.50;3.22;;;;;;;;;;6223155;28;20627;-71
2022/07/12 06:56:34;;;;;;;2.35;2.15;;;;;;;;;;6222888;28;20833;-70
2022/07/12 06:59:56;;;;;;;2.67;1.88;;;;;;;;;;6222313;28;20229;-69
2022/07/12 07:03:17;;;;;;;2.35;2.20;;;;;;;;;;6214575;28;20225;-71
2022/07/12 07:06:38;;;;;;;2.25;2.05;;;;;;;;;;6208092;28;20593;-71
2022/07/12 07:09:59;;;;;;;4.07;2.22;;;;;;;;;;6229380;28;20263;-70
2022/07/12 07:13:19;;;;;;;2.00;1.83;;;;;;;;;;6223365;28;20491;-68
2022/07/12 07:16:41;;;;;;;3.90;2.67;;;;;;;;;;6222210;28;20493;-69
2022/07/12 07:20:04;;;;;;;2.33;2.13;;;;;;;;;;6223971;28;20366;-72
2022/07/12 07:23:24;;;;;;;5.18;2.42;;;;;;;;;;6219531;28;20228;-70
2022/07/12 07:26:45;;;;;;;2.28;2.17;;;;;;;;;;6216845;28;20289;-70
2022/07/12 07:33:47;;;;;;;3.40;2.35;;;;;;;;;;6210384;28;20228;-69
2022/07/12 07:37:07;;;;;;;3.10;2.67;;;;;;;;;;6223685;28;20339;-69
2022/07/12 07:40:28;;;;;;;9.27;2.45;;;;;;;;;;6224544;28;20621;-69
2022/07/12 07:43:49;;;;;;;2.50;2.20;;;;;;;;;;6228475;28;20237;-68
2022/07/12 07:47:09;;;;;;;2.60;2.40;;;;;;;;;;6224805;28;20861;-70
2022/07/12 07:50:31;;;;;;;2.72;2.53;;;;;;;;;;6225264;28;20229;-68
2022/07/12 07:53:52;;;;;;;2.72;2.25;;;;;;;;;;6230482;28;20240;-67
2022/07/12 07:57:12;;;;;;;2.50;2.30;;;;;;;;;;6221541;28;20274;-66
2022/07/12 08:00:33;;;;;;;3.45;2.20;;;;;;;;;;6196307;28;20690;-66
2022/07/12 08:03:54;;;;;;;2.20;2.00;;;;;;;;;;6227178;28;20248;-68
2022/07/12 08:07:16;;;;;;;5.35;2.85;;;;;;;;;;6220675;28;20592;-65
2022/07/12 08:10:36;;;;;;;3.00;2.10;;;;;;;;;;6229503;28;20229;-67
2022/07/12 08:13:57;;;;;;;2.75;2.53;;;;;;;;;;6232363;28;20236;-67
2022/07/12 08:17:17;;;;;;;4.38;2.35;;;;;;;;;;6227010;28;20260;-68
2022/07/12 08:20:38;;;;;;;3.10;2.17;;;;;;;;;;6226063;28;20248;-69
2022/07/12 08:24:00;;;;;;;11.30;2.70;;;;;;;;;;6222652;28;20327;-66
2022/07/12 08:27:20;;;;;;;2.97;2.67;;;;;;;;;;6224970;28;20225;-68
2022/07/12 08:30:41;;;;;;;3.50;2.10;;;;;;;;;;6226794;28;22197;-67
2022/07/12 08:34:01;;;;;;;2.88;2.10;;;;;;;;;;6219911;28;20224;-67
2022/07/12 08:37:22;;;;;;;4.13;2.10;;;;;;;;;;6230540;28;20248;-67
2022/07/12 08:40:44;;;;;;;3.58;2.47;;;;;;;;;;6224369;28;20228;-67
2022/07/12 08:44:05;;;;;;;2.35;2.00;;;;;;;;;;6229297;28;20642;-67
2022/07/12 08:47:25;;;;;;;2.38;2.17;;;;;;;;;;6223846;28;20232;-66
2022/07/12 08:51:00;;;;;;;3.17;2.90;;;;;;;;;;6215499;28;20228;-66
2022/07/12 08:54:20;;;;;;;2.35;2.15;;;;;;;;;;6221836;28;20248;-67
2022/07/12 08:57:42;;;;;;;2.55;2.20;;;;;;;;;;6219087;28;21218;-66
2022/07/12 09:01:03;;;;;;;2.58;2.38;;;;;;;;;;6224172;28;20248;-68
2022/07/12 09:04:25;;;;;;;3.55;2.90;;;;;;;;;;6211216;28;20256;-67
2022/07/12 09:07:45;;;;;;;4.60;3.03;;;;;;;;;;6220565;28;20625;-68
2022/07/12 09:11:06;;;;;;;2.55;2.08;;;;;;;;;;6223873;28;20232;-67
2022/07/12 09:14:28;;;;;;;1.90;1.80;;;;;;;;;;6226458;28;20588;-68
2022/07/12 09:17:57;;;;;;;3.75;2.65;;;;;;;;;;6227541;28;20232;-68
2022/07/12 09:21:24;;;;;;;2.15;2.05;;;;;;;;;;6230188;28;20235;-68
2022/07/12 09:24:45;;;;;;;3.35;2.20;;;;;;;;;;6221445;28;20229;-67
2022/07/12 09:28:06;;;;;;;2.38;2.10;;;;;;;;;;6222192;28;20233;-68
2022/07/12 09:31:40;;;;;;;2.35;2.22;;;;;;;;;;6219302;28;21460;-68
2022/07/12 09:38:39;;;;;;;2.35;1.67;;;;;;;;;;6219472;28;20233;-68
2022/07/12 09:42:01;;;;;;;4.88;2.30;;;;;;;;;;6224835;28;20263;-66
2022/07/12 09:45:22;;;;;;;2.83;1.90;;;;;;;;;;6228588;28;20243;-67
2022/07/12 09:48:45;;;;;;;2.35;2.15;;;;;;;;;;6220659;28;20232;-66
2022/07/12 09:52:06;;;;;;;3.63;1.65;;;;;;;;;;6221969;28;20256;-67
2022/07/12 09:55:30;;;;;;;2.78;2.58;;;;;;;;;;6224834;28;20241;-66
2022/07/12 09:58:52;;;;;;;2.90;2.03;;;;;;;;;;6224888;28;20244;-68
2022/07/12 10:02:15;;;;;;;2.35;2.15;;;;;;;;;;6218100;28;20228;-68
2022/07/12 10:05:41;;;;;;;1.30;1.25;;;;;;;;;;6209254;28;20241;-68
2022/07/12 10:09:01;;;;;;;1.60;1.50;;;;;;;;;;6218427;28;20727;-70
2022/07/12 10:12:23;;;;;;;1.60;1.50;;;;;;;;;;6224114;28;20315;-70
2022/07/12 10:15:46;;;;;;;1.70;1.52;;;;;;;;;;6211464;28;20232;-71
2022/07/12 10:19:23;;;;;;;2.25;1.88;;;;;;;;;;6224833;28;20236;-71
2022/07/12 10:22:45;;;;;;;1.83;1.73;;;;;;;;;;6219918;28;20224;-70
2022/07/12 10:26:23;;;;;;;1.75;1.63;;;;;;;;;;6220766;28;20498;-71
2022/07/12 10:29:45;;;;;;;1.60;1.50;;;;;;;;;;6219815;28;20236;-71
2022/07/12 10:33:15;;;;;;;1.88;1.42;;;;;;;;;;6219201;28;20225;-70
2022/07/12 10:36:50;;;;;;;2.72;1.58;;;;;;;;;;6220345;28;20243;-71
2022/07/12 10:40:16;;;;;;;2.17;1.98;;;;;;;;;;6208291;28;20517;-70
2022/07/12 10:47:16;;;;;;;1.80;1.70;;;;;;;;;;6217811;28;20903;-71
2022/07/12 10:50:56;;;;;;;1.83;1.63;;;;;;;;;;6217208;28;20690;-71
2022/07/12 10:54:20;;;;;;;1.88;1.40;;;;;;;;;;6191487;28;20236;-70
2022/07/12 10:57:43;;;;;;;1.20;1.10;;;;;;;;;;6211541;28;20319;-70
2022/07/12 11:01:05;;;;;;;1.67;1.58;;;;;;;;;;6226390;28;20236;-70
2022/07/12 11:04:25;;;;;;;1.83;1.33;;;;;;;;;;6199198;28;20244;-70
2022/07/12 11:07:48;;;;;;;5.38;4.90;;;;;;;;;;6209107;28;20480;-69
2022/07/12 11:11:08;;;;;;;2.45;1.13;;;;;;;;;;6226729;28;20603;-70
2022/07/12 11:14:32;;;;;;;2.30;2.03;;;;;;;;;;6221011;28;20231;-71
2022/07/12 11:17:52;;;;;;;1.80;1.70;;;;;;;;;;6224109;28;21056;-70
2022/07/12 11:21:13;;;;;;;1.30;1.20;;;;;;;;;;6227987;28;20225;-71
2022/07/12 11:24:34;;;;;;;2.08;1.33;;;;;;;;;;6232645;28;20228;-69
2022/07/12 11:27:55;;;;;;;2.40;1.30;;;;;;;;;;6229669;28;20506;-70
2022/07/12 11:31:17;;;;;;;3.58;3.38;;;;;;;;;;6223472;28;20241;-69
2022/07/12 11:34:38;;;;;;;3.67;3.45;;;;;;;;;;6230352;28;20758;-70
2022/07/12 11:37:59;;;;;;;3.90;1.70;;;;;;;;;;6229498;28;20232;-71
2022/07/12 11:41:22;;;;;;;1.88;1.45;;;;;;;;;;6227788;28;20598;-70
2022/07/12 11:44:44;;;;;;;1.90;1.80;;;;;;;;;;6229949;28;20228;-70
2022/07/12 11:48:06;;;;;;;1.70;1.40;;;;;;;;;;6223694;28;20228;-70
2022/07/12 11:51:28;;;;;;;1.58;1.20;;;;;;;;;;6227629;28;20233;-70
2022/07/12 11:54:49;;;;;;;2.33;1.30;;;;;;;;;;6220029;28;20224;-69
2022/07/12 11:58:10;;;;;;;1.33;1.23;;;;;;;;;;6225395;28;20622;-68
2022/07/12 12:01:31;;;;;;;1.75;1.30;;;;;;;;;;6227874;28;20617;-69
2022/07/12 12:04:53;;;;;;;1.60;1.50;;;;;;;;;;6230416;28;20304;-69
2022/07/12 12:08:15;;;;;;;2.40;1.52;;;;;;;;;;6220920;28;20229;-69
2022/07/12 12:11:35;;;;;;;1.25;1.15;;;;;;;;;;6219441;28;20235;-71
2022/07/12 12:14:57;;;;;;;1.33;1.23;;;;;;;;;;6229811;28;20237;-69
2022/07/12 12:18:27;;;;;;;3.25;1.38;;;;;;;;;;6230013;28;20272;-69
2022/07/12 12:21:49;;;;;;;1.77;1.67;;;;;;;;;;6223847;28;20228;-70
2022/07/12 12:25:13;;;;;;;1.33;1.23;;;;;;;;;;6228522;28;20236;-68
2022/07/12 12:28:41;;;;;;;1.23;1.13;;;;;;;;;;6229387;28;20220;-69
2022/07/12 12:32:01;;;;;;;0.98;0.98;;;;;;;;;;6222546;28;20761;-69
2022/07/12 12:35:22;;;;;;;1.23;0.90;;;;;;;;;;6223497;28;20303;-69
2022/07/12 12:38:45;;;;;;;0.77;0.77;;;;;;;;;;6224020;28;20236;-71
2022/07/12 12:42:06;;;;;;;1.60;0.75;;;;;;;;;;6228114;28;20236;-68
2022/07/12 12:45:26;;;;;;;2.60;1.10;;;;;;;;;;6225992;28;20224;-71
2022/07/12 12:48:48;;;;;;;0.75;0.75;;;;;;;;;;6226076;28;20224;-69
2022/07/12 12:52:09;;;;;;;0.80;0.80;;;;;;;;;;6227489;28;20324;-71
2022/07/12 12:55:31;;;;;;;1.13;1.02;;;;;;;;;;6224496;28;20221;-69
2022/07/12 12:58:53;;;;;;;2.00;1.00;;;;;;;;;;6227356;28;20232;-68
2022/07/12 13:02:14;;;;;;;2.85;2.65;;;;;;;;;;6226394;28;20233;-69
2022/07/12 13:05:35;;;;;;;4.93;4.40;;;;;;;;;;6233634;28;20289;-70
2022/07/12 13:08:55;;;;;;;2.08;1.40;;;;;;;;;;6228457;28;20236;-67
2022/07/12 13:12:17;;;;;;;2.22;1.13;;;;;;;;;;6227641;28;20252;-68
2022/07/12 13:15:38;;;;;;;1.92;1.52;;;;;;;;;;6229870;28;20287;-68
2022/07/12 13:18:59;;;;;;;1.45;0.90;;;;;;;;;;6206779;28;20258;-68
2022/07/12 13:22:19;;;;;;;1.95;1.15;;;;;;;;;;6221045;28;20625;-70
2022/07/12 13:25:40;;;;;;;2.20;0.70;;;;;;;;;;6233631;28;20220;-70
2022/07/12 13:29:02;;;;;;;2.42;1.15;;;;;;;;;;6227821;28;20220;-69
2022/07/12 13:32:24;;;;;;;1.55;0.70;;;;;;;;;;6224435;28;20248;-69
2022/07/12 13:35:44;;;;;;;4.28;2.95;;;;;;;;;;6222393;28;20225;-69
2022/07/12 13:42:40;;;;;;;1.60;0.70;;;;;;;;;;6224191;28;20231;-70
2022/07/12 13:46:01;;;;;;;1.63;0.77;;;;;;;;;;6226432;28;20590;-70
2022/07/12 13:49:22;;;;;;;1.40;0.95;;;;;;;;;;6228459;28;20836;-71
2022/07/12 13:52:43;;;;;;;0.95;0.95;;;;;;;;;;6227084;28;20232;-70
2022/07/12 13:56:04;;;;;;;1.33;0.88;;;;;;;;;;6225781;28;20221;-69
2022/07/12 13:59:24;;;;;;;1.70;0.75;;;;;;;;;;6232127;28;20502;-70
2022/07/12 14:02:47;;;;;;;2.05;0.73;;;;;;;;;;6216291;28;20236;-70
2022/07/12 14:06:08;;;;;;;1.25;0.80;;;;;;;;;;6226233;28;20229;-68
2022/07/12 14:09:29;;;;;;;0.47;0.47;;;;;;;;;;6224012;28;20360;-69
2022/07/12 14:12:49;;;;;;;0.70;0.70;;;;;;;;;;6227203;28;20228;-69
2022/07/12 14:16:10;;;;;;;0.70;0.70;;;;;;;;;;6229729;28;20241;-70
2022/07/12 14:19:32;;;;;;;0.77;0.70;;;;;;;;;;6230415;28;20312;-67
2022/07/12 14:22:56;;;;;;;1.73;1.63;;;;;;;;;;6225331;28;20232;-69
2022/07/12 14:26:16;;;;;;;2.25;1.00;;;;;;;;;;6224119;28;20233;-69
2022/07/12 14:29:37;;;;;;;0.75;0.70;;;;;;;;;;6233315;28;20216;-69
2022/07/12 14:32:57;;;;;;;1.88;1.77;;;;;;;;;;6225596;28;20228;-70
2022/07/12 14:36:19;;;;;;;3.30;3.00;;;;;;;;;;6219049;28;20597;-73
2022/07/12 14:39:40;;;;;;;2.95;1.25;;;;;;;;;;6223088;28;20233;-68
2022/07/12 14:43:00;;;;;;;5.30;4.80;;;;;;;;;;6224513;28;20232;-69
2022/07/12 14:46:21;;;;;;;2.72;1.40;;;;;;;;;;6224525;28;20237;-70
2022/07/12 14:49:41;;;;;;;1.30;1.15;;;;;;;;;;6231763;28;20236;-69
2022/07/12 14:53:03;;;;;;;8.35;7.65;;;;;;;;;;6226663;28;20615;-69
2022/07/12 14:56:24;;;;;;;12.05;11.15;;;;;;;;;;6233446;28;20240;-67
2022/07/12 14:59:45;;;;;;;2.05;1.33;;;;;;;;;;6235973;28;20228;-68
2022/07/12 15:03:05;;;;;;;1.08;0.63;;;;;;;;;;6221906;28;20323;-71
2022/07/12 15:06:26;;;;;;;0.57;0.52;;;;;;;;;;6227843;28;20598;-68
2022/07/12 15:09:48;;;;;;;0.60;0.60;;;;;;;;;;6228369;28;20255;-69
2022/07/12 15:13:09;;;;;;;1.70;0.70;;;;;;;;;;6224719;28;20610;-70
2022/07/12 15:16:30;;;;;;;1.90;0.98;;;;;;;;;;6233886;28;20831;-70
2022/07/12 15:19:51;;;;;;;0.45;0.45;;;;;;;;;;6238212;28;20454;-70
2022/07/12 15:23:11;;;;;;;1.13;0.70;;;;;;;;;;6224999;28;20225;-71
2022/07/12 15:26:33;;;;;;;0.90;0.90;;;;;;;;;;6235500;28;20236;-71
2022/07/12 15:29:54;;;;;;;0.60;0.60;;;;;;;;;;6237580;28;20224;-72
2022/07/12 15:33:14;;;;;;;1.63;0.77;;;;;;;;;;6233210;28;20499;-70
2022/07/12 15:36:35;;;;;;;2.78;2.15;;;;;;;;;;6237001;28;20236;-71
2022/07/12 15:39:55;;;;;;;1.23;1.13;;;;;;;;;;6220012;28;20531;-72
2022/07/12 15:43:17;;;;;;;0.55;0.55;;;;;;;;;;6235851;28;20228;-70
2022/07/12 15:46:38;;;;;;;1.20;0.88;;;;;;;;;;6238728;28;20232;-70
2022/07/12 15:49:59;;;;;;;3.03;1.10;;;;;;;;;;6239905;28;20761;-72
2022/07/12 15:53:28;;;;;;;1.02;1.02;;;;;;;;;;6233336;28;20228;-73
2022/07/12 15:56:49;;;;;;;1.52;1.00;;;;;;;;;;6232122;28;20228;-71
2022/07/12 16:00:12;;;;;;;2.88;0.70;;;;;;;;;;6236217;28;20574;-71
2022/07/12 16:03:33;;;;;;;1.90;1.50;;;;;;;;;;6235070;28;20980;-72
2022/07/12 16:06:54;;;;;;;3.55;3.20;;;;;;;;;;6234653;28;20281;-71
2022/07/12 16:10:15;;;;;;;3.92;3.50;;;;;;;;;;6223063;28;20609;-72
2022/07/12 16:13:35;;;;;;;6.57;6.07;;;;;;;;;;6231129;28;20232;-70
2022/07/12 16:16:57;;;;;;;9.88;8.82;;;;;;;;;;6235861;28;20228;-71
2022/07/12 16:20:19;;;;;;;5.47;5.03;;;;;;;;;;6235948;28;20228;-71
2022/07/12 16:23:39;;;;;;;2.65;2.50;;;;;;;;;;6236602;28;20252;-71
2022/07/12 16:27:00;;;;;;;8.25;7.55;;;;;;;;;;6235364;28;20253;-71
2022/07/12 16:30:20;;;;;;;7.70;7.03;;;;;;;;;;6237179;28;20224;-71
2022/07/12 16:33:42;;;;;;;2.80;2.60;;;;;;;;;;6236408;28;20327;-72
2022/07/12 16:37:03;;;;;;;3.00;2.08;;;;;;;;;;6230101;28;20594;-71
2022/07/12 16:40:24;;;;;;;2.00;1.90;;;;;;;;;;6219683;28;20273;-71
2022/07/12 16:43:45;;;;;;;2.60;2.42;;;;;;;;;;6222465;28;20237;-71
2022/07/12 16:47:06;;;;;;;4.75;4.22;;;;;;;;;;6230721;28;20228;-72
2022/07/12 16:50:28;;;;;;;4.10;3.72;;;;;;;;;;6225523;28;20236;-71
2022/07/12 16:53:52;;;;;;;5.28;4.57;;;;;;;;;;6235083;28;20224;-73
2022/07/12 16:57:12;;;;;;;9.07;8.43;;;;;;;;;;6229677;28;20228;-72
2022/07/12 17:00:33;;;;;;;2.78;2.53;;;;;;;;;;6233701;28;20587;-72
2022/07/12 17:03:54;;;;;;;3.05;2.60;;;;;;;;;;6234093;28;20282;-73
2022/07/12 17:07:16;;;;;;;2.47;2.28;;;;;;;;;;6233637;28;20233;-72
2022/07/12 17:10:36;;;;;;;6.13;5.57;;;;;;;;;;6233680;28;20700;-71
2022/07/12 17:13:57;;;;;;;2.05;1.92;;;;;;;;;;6231056;28;20233;-71
2022/07/12 17:17:18;;;;;;;6.55;6.00;;;;;;;;;;6229296;28;20602;-71
2022/07/12 17:20:39;;;;;;;7.90;7.07;;;;;;;;;;6223454;28;20256;-71
2022/07/12 17:24:00;;;;;;;11.80;10.25;;;;;;;;;;6208527;28;20225;-71
2022/07/12 17:27:21;;;;;;;7.53;6.82;;;;;;;;;;6227962;28;20248;-71
2022/07/12 17:30:43;;;;;;;10.35;9.52;;;;;;;;;;6232377;28;20232;-72
2022/07/12 17:34:03;;;;;;;5.82;5.40;;;;;;;;;;6229641;28;20229;-71
2022/07/12 17:37:24;;;;;;;1.98;1.33;;;;;;;;;;6220234;28;20228;-70
2022/07/12 17:40:46;;;;;;;2.60;2.40;;;;;;;;;;6223429;28;20891;-70
2022/07/12 17:44:07;;;;;;;4.03;2.67;;;;;;;;;;6233773;28;20814;-71
2022/07/12 17:47:27;;;;;;;2.20;2.05;;;;;;;;;;6227671;28;20500;-71
2022/07/12 17:50:48;;;;;;;2.25;1.63;;;;;;;;;;6229673;28;20232;-72
2022/07/12 17:54:08;;;;;;;3.25;2.20;;;;;;;;;;6231804;28;20228;-73
2022/07/12 17:57:30;;;;;;;5.05;3.05;;;;;;;;;;6228442;28;20225;-72
2022/07/12 18:00:51;;;;;;;5.32;4.80;;;;;;;;;;6233712;28;20613;-73
2022/07/12 18:04:12;;;;;;;4.13;3.25;;;;;;;;;;6228085;28;20225;-72
2022/07/12 18:07:32;;;;;;;1.33;1.23;;;;;;;;;;6226263;28;20327;-75
2022/07/12 18:10:53;;;;;;;3.80;3.45;;;;;;;;;;6234489;28;20248;-74
2022/07/12 18:18:02;;;;;;;4.13;3.58;;;;;;;;;;6230868;28;20220;-73
2022/07/12 18:21:22;;;;;;;3.00;1.70;;;;;;;;;;6230298;28;20220;-74
2022/07/12 18:24:43;;;;;;;1.67;1.58;;;;;;;;;;6216307;28;20323;-75
2022/07/12 18:28:04;;;;;;;1.33;1.23;;;;;;;;;;6228111;28;20232;-72
2022/07/12 18:31:27;;;;;;;0.80;0.80;;;;;;;;;;6232790;28;20343;-73
2022/07/12 18:34:48;;;;;;;1.67;1.10;;;;;;;;;;6232488;28;20232;-73
2022/07/12 18:38:08;;;;;;;1.88;1.00;;;;;;;;;;6231203;28;20228;-73
2022/07/12 18:41:29;;;;;;;1.50;1.40;;;;;;;;;;6229918;28;20233;-71
2022/07/12 18:44:49;;;;;;;12.40;11.40;;;;;;;;;;6231405;28;20499;-73
2022/07/12 18:48:11;;;;;;;2.97;2.78;;;;;;;;;;6232020;28;20367;-72
2022/07/12 18:51:32;;;;;;;1.40;1.30;;;;;;;;;;6228439;28;21107;-73
2022/07/12 18:54:52;;;;;;;2.08;1.52;;;;;;;;;;6228041;28;20224;-73
2022/07/12 18:58:13;;;;;;;1.80;1.65;;;;;;;;;;6219508;28;20236;-72
2022/07/12 19:01:34;;;;;;;1.27;1.17;;;;;;;;;;6232020;28;20240;-73
2022/07/12 19:04:56;;;;;;;1.88;1.70;;;;;;;;;;6232521;28;20601;-72
2022/07/12 19:08:16;;;;;;;2.97;1.80;;;;;;;;;;6232723;28;20256;-73
2022/07/12 19:11:37;;;;;;;2.95;2.58;;;;;;;;;;6226858;28;20236;-73
2022/07/12 19:14:58;;;;;;;2.78;1.70;;;;;;;;;;6229063;28;20251;-73
2022/07/12 19:18:19;;;;;;;3.78;2.50;;;;;;;;;;6231900;28;20597;-74
2022/07/12 19:21:40;;;;;;;2.95;2.75;;;;;;;;;;6222194;28;20233;-73
2022/07/12 19:25:01;;;;;;;3.30;2.35;;;;;;;;;;6231383;28;20251;-73
2022/07/12 19:28:22;;;;;;;2.80;2.55;;;;;;;;;;6233041;28;20224;-72
2022/07/12 19:31:43;;;;;;;3.08;2.75;;;;;;;;;;6227686;28;20225;-72
2022/07/12 19:35:03;;;;;;;2.70;2.50;;;;;;;;;;6232235;28;20237;-74
2022/07/12 19:38:25;;;;;;;3.65;3.33;;;;;;;;;;6231778;28;20228;-73
2022/07/12 19:41:46;;;;;;;4.45;3.97;;;;;;;;;;6230885;28;20224;-73
2022/07/12 19:45:07;;;;;;;2.22;2.03;;;;;;;;;;6234353;28;20309;-73
2022/07/12 19:48:28;;;;;;;4.15;2.50;;;;;;;;;;6232257;28;20244;-73
2022/07/12 19:51:48;;;;;;;4.65;2.75;;;;;;;;;;6230174;28;20315;-75
2022/07/12 19:55:10;;;;;;;6.10;3.45;;;;;;;;;;6228839;28;20229;-73
2022/07/12 19:58:31;;;;;;;3.38;3.08;;;;;;;;;;6225370;28;20357;-73
2022/07/12 20:01:51;;;;;;;6.00;5.40;;;;;;;;;;6222807;28;20224;-75
2022/07/12 20:05:12;;;;;;;3.90;3.53;;;;;;;;;;6208300;28;20759;-70
2022/07/12 20:08:33;;;;;;;3.97;3.55;;;;;;;;;;6231079;28;20232;-72
2022/07/12 20:11:54;;;;;;;3.55;3.25;;;;;;;;;;6229025;28;20232;-70
2022/07/12 20:15:15;;;;;;;3.90;3.42;;;;;;;;;;6232142;28;20511;-70
2022/07/12 20:18:36;;;;;;;3.15;2.83;;;;;;;;;;6228578;28;20558;-70
2022/07/12 20:21:57;;;;;;;3.35;3.10;;;;;;;;;;6232076;28;20599;-71
2022/07/12 20:25:18;;;;;;;3.50;3.10;;;;;;;;;;6226810;28;20260;-73
2022/07/12 20:28:40;;;;;;;3.75;3.35;;;;;;;;;;6227290;28;20232;-74